createdAt,value
2023-04-16T00:01:35.421Z,6.75
2023-04-16T00:04:02.292Z,6.71
2023-04-16T00:06:29.346Z,6.69
2023-04-16T00:08:56.043Z,6.66
2023-04-16T00:11:22.640Z,6.71
2023-04-16T00:13:49.332Z,6.68
2023-04-16T00:16:16.189Z,6.62
2023-04-16T00:18:42.953Z,6.59
2023-04-16T00:21:09.597Z,6.56
2023-04-16T00:23:36.224Z,6.62
2023-04-16T00:26:02.936Z,6.65
2023-04-16T00:28:29.625Z,6.66
2023-04-16T00:30:56.312Z,6.66
2023-04-16T00:33:23.695Z,6.66
2023-04-16T00:35:51.246Z,6.69
2023-04-16T00:38:17.973Z,6.71
2023-04-16T00:40:44.583Z,6.65
2023-04-16T00:43:11.357Z,6.61
2023-04-16T00:45:38.132Z,6.62
2023-04-16T00:48:04.870Z,6.61
2023-04-16T00:50:31.519Z,6.66
2023-04-16T00:52:58.371Z,6.69
2023-04-16T00:55:24.995Z,6.73
2023-04-16T00:57:51.699Z,6.65
2023-04-16T01:00:18.336Z,6.61
2023-04-16T01:02:45.159Z,6.59
2023-04-16T01:05:11.918Z,6.50
2023-04-16T01:07:38.640Z,6.52
2023-04-16T01:10:05.653Z,6.50
2023-04-16T01:12:32.674Z,6.50
2023-04-16T01:14:59.443Z,6.53
2023-04-16T01:17:26.093Z,6.56
2023-04-16T01:19:52.710Z,6.59
2023-04-16T01:22:19.403Z,6.62
2023-04-16T01:24:46.239Z,6.65
2023-04-16T01:27:12.918Z,6.64
2023-04-16T01:29:39.562Z,6.64
2023-04-16T01:32:06.323Z,6.61
2023-04-16T01:34:32.965Z,6.62
2023-04-16T01:36:59.610Z,6.64
2023-04-16T01:39:26.402Z,6.61
2023-04-16T01:41:53.053Z,6.55
2023-04-16T01:44:19.735Z,6.55
2023-04-16T01:46:46.445Z,6.49
2023-04-16T01:49:13.158Z,6.48
2023-04-16T01:51:39.864Z,6.48
2023-04-16T01:54:06.466Z,6.46
2023-04-16T01:56:33.161Z,6.48
2023-04-16T01:58:59.853Z,6.45
2023-04-16T02:01:26.597Z,6.41
2023-04-16T02:03:53.606Z,6.39
2023-04-16T02:06:20.533Z,6.38
2023-04-16T02:08:47.250Z,6.35
2023-04-16T02:11:13.916Z,6.41
2023-04-16T02:13:40.761Z,6.41
2023-04-16T02:16:07.501Z,6.49
2023-04-16T02:18:34.224Z,6.46
2023-04-16T02:21:00.868Z,6.46
2023-04-16T02:23:27.714Z,6.52
2023-04-16T02:25:54.431Z,6.55
2023-04-16T02:28:21.178Z,6.61
2023-04-16T02:30:47.850Z,6.64
2023-04-16T02:33:14.494Z,6.65
2023-04-16T02:35:41.299Z,6.65
2023-04-16T02:38:08.077Z,6.65
2023-04-16T02:40:34.778Z,6.66
2023-04-16T02:43:01.468Z,6.68
2023-04-16T02:45:28.241Z,6.72
2023-04-16T02:47:54.880Z,6.73
2023-04-16T02:50:21.559Z,6.76
2023-04-16T02:52:48.675Z,6.76
2023-04-16T02:55:15.395Z,6.77
2023-04-16T02:57:42.709Z,6.80
2023-04-16T03:00:09.970Z,6.83
2023-04-16T03:02:36.882Z,6.87
2023-04-16T03:05:04.097Z,6.86
2023-04-16T03:07:30.767Z,6.82
2023-04-16T03:09:57.407Z,6.87
2023-04-16T03:12:24.110Z,6.93
2023-04-16T03:14:52.561Z,6.97
2023-04-16T03:17:19.254Z,7.03
2023-04-16T03:19:46.220Z,7.11
2023-04-16T03:22:13.109Z,7.16
2023-04-16T03:24:39.731Z,7.14
2023-04-16T03:27:06.387Z,6.99
2023-04-16T03:29:33.027Z,6.93
2023-04-16T03:31:59.668Z,6.96
2023-04-16T03:34:26.729Z,6.93
2023-04-16T03:36:53.443Z,6.95
2023-04-16T03:39:20.088Z,6.87
2023-04-16T03:41:46.986Z,6.76
2023-04-16T03:44:13.597Z,6.75
2023-04-16T03:46:40.670Z,6.68
2023-04-16T03:49:07.914Z,6.59
2023-04-16T03:51:34.873Z,6.61
2023-04-16T03:54:01.546Z,6.61
2023-04-16T03:56:28.193Z,6.64
2023-04-16T03:58:54.871Z,6.53
2023-04-16T04:01:21.534Z,6.44
2023-04-16T04:03:48.495Z,6.34
2023-04-16T04:06:15.326Z,6.34
2023-04-16T04:08:41.934Z,6.34
2023-04-16T04:11:08.581Z,6.39
2023-04-16T04:13:35.320Z,6.46
2023-04-16T04:16:02.031Z,6.53
2023-04-16T04:18:28.741Z,6.58
2023-04-16T04:20:55.352Z,6.53
2023-04-16T04:23:22.043Z,6.39
2023-04-16T04:25:48.748Z,6.46
2023-04-16T04:28:15.708Z,6.49
2023-04-16T04:30:42.401Z,6.68
2023-04-16T04:33:09.088Z,6.75
2023-04-16T04:35:35.758Z,6.86
2023-04-16T04:38:03.110Z,6.99
2023-04-16T04:40:29.805Z,7.11
2023-04-16T04:42:56.602Z,7.18
2023-04-16T04:45:25.645Z,7.27
2023-04-16T04:47:53.085Z,7.32
2023-04-16T04:50:21.108Z,7.31
2023-04-16T04:52:47.753Z,7.40
2023-04-16T04:55:16.065Z,7.52
2023-04-16T04:57:42.858Z,7.61
2023-04-16T05:00:09.929Z,7.81
2023-04-16T05:02:36.755Z,7.92
2023-04-16T05:05:04.260Z,8.12
2023-04-16T05:07:31.049Z,8.26
2023-04-16T05:09:57.674Z,8.40
2023-04-16T05:12:24.372Z,8.40
2023-04-16T05:14:51.160Z,8.26
2023-04-16T05:17:17.816Z,8.16
2023-04-16T05:19:44.479Z,8.09
2023-04-16T05:22:11.150Z,8.14
2023-04-16T05:24:37.801Z,8.21
2023-04-16T05:27:04.489Z,8.19
2023-04-16T05:29:31.165Z,8.16
2023-04-16T05:31:57.804Z,8.29
2023-04-16T05:34:24.480Z,8.37
2023-04-16T05:36:51.121Z,8.52
2023-04-16T05:39:18.706Z,8.67
2023-04-16T05:41:45.517Z,8.76
2023-04-16T05:44:12.197Z,8.90
2023-04-16T05:46:38.981Z,9.19
2023-04-16T05:49:05.755Z,9.58
2023-04-16T05:51:32.434Z,9.70
2023-04-16T05:53:59.175Z,9.77
2023-04-16T05:56:26.153Z,9.79
2023-04-16T05:58:52.792Z,9.91
2023-04-16T06:01:19.424Z,10.08
2023-04-16T06:03:46.237Z,10.19
2023-04-16T06:06:13.096Z,10.15
2023-04-16T06:08:39.808Z,10.08
2023-04-16T06:11:06.599Z,10.16
2023-04-16T06:13:33.208Z,10.25
2023-04-16T06:15:59.966Z,10.39
2023-04-16T06:18:26.665Z,10.59
2023-04-16T06:20:53.346Z,10.65
2023-04-16T06:23:20.342Z,10.65
2023-04-16T06:25:46.993Z,10.80
2023-04-16T06:28:13.592Z,10.94
2023-04-16T06:30:40.665Z,10.98
2023-04-16T06:33:08.055Z,11.01
2023-04-16T06:35:34.676Z,10.90
2023-04-16T06:38:01.345Z,10.72
2023-04-16T06:40:28.013Z,10.68
2023-04-16T06:42:54.620Z,10.59
2023-04-16T06:45:21.282Z,10.50
2023-04-16T06:47:48.229Z,10.49
2023-04-16T06:50:15.033Z,10.56
2023-04-16T06:52:41.789Z,10.54
2023-04-16T06:55:09.865Z,10.68
2023-04-16T06:57:37.593Z,10.78
2023-04-16T07:00:07.408Z,10.94
2023-04-16T07:02:34.135Z,11.01
2023-04-16T07:05:00.983Z,11.05
2023-04-16T07:07:27.676Z,11.04
2023-04-16T07:09:54.298Z,11.08
2023-04-16T07:12:22.697Z,11.11
2023-04-16T07:14:49.803Z,11.15
2023-04-16T07:17:16.440Z,11.20
2023-04-16T07:19:43.078Z,11.29
2023-04-16T07:22:09.737Z,11.49
2023-04-16T07:24:36.461Z,11.62
2023-04-16T07:27:03.139Z,11.73
2023-04-16T07:29:29.883Z,11.94
2023-04-16T07:31:57.068Z,12.10
2023-04-16T07:34:23.791Z,12.25
2023-04-16T07:36:50.463Z,12.25
2023-04-16T07:39:17.152Z,12.21
2023-04-16T07:41:43.785Z,12.22
2023-04-16T07:44:10.558Z,12.20
2023-04-16T07:46:46.345Z,12.18
2023-04-16T07:49:14.324Z,12.15
2023-04-16T07:51:41.221Z,12.31
2023-04-16T07:54:07.864Z,12.39
2023-04-16T07:56:34.554Z,12.45
2023-04-16T07:59:14.410Z,12.75
2023-04-16T08:01:47.859Z,13.01
2023-04-16T08:04:14.631Z,13.03
2023-04-16T08:06:41.487Z,13.00
2023-04-16T08:09:08.480Z,12.94
2023-04-16T08:11:35.396Z,12.82
2023-04-16T08:14:02.106Z,12.79
2023-04-16T08:16:28.739Z,12.93
2023-04-16T08:18:55.373Z,13.21
2023-04-16T08:21:22.119Z,13.49
2023-04-16T08:23:48.776Z,13.93
2023-04-16T08:26:17.482Z,14.06
2023-04-16T08:28:44.186Z,13.93
2023-04-16T08:31:11.202Z,13.93
2023-04-16T08:33:38.149Z,14.26
2023-04-16T08:36:05.122Z,14.61
2023-04-16T08:38:31.897Z,14.74
2023-04-16T08:40:59.318Z,15.34
2023-04-16T08:43:26.026Z,15.68
2023-04-16T08:45:53.215Z,15.39
2023-04-16T08:48:21.440Z,15.27
2023-04-16T08:50:49.268Z,15.53
2023-04-16T08:53:19.361Z,15.54
2023-04-16T08:55:49.570Z,15.58
2023-04-16T08:58:19.845Z,15.40
2023-04-16T09:00:46.566Z,15.14
2023-04-16T09:03:13.416Z,14.92
2023-04-16T09:05:40.267Z,14.95
2023-04-16T09:08:07.063Z,14.89
2023-04-16T09:10:33.905Z,14.78
2023-04-16T09:13:00.599Z,14.64
2023-04-16T09:15:27.331Z,14.67
2023-04-16T09:17:54.213Z,14.57
2023-04-16T09:20:21.217Z,14.49
2023-04-16T09:22:48.490Z,14.40
2023-04-16T09:25:15.457Z,14.23
2023-04-16T09:27:42.104Z,14.17
2023-04-16T09:30:24.891Z,13.91
2023-04-16T09:32:52.228Z,13.78
2023-04-16T09:35:19.511Z,13.79
2023-04-16T09:37:55.943Z,13.99
2023-04-16T09:40:30.380Z,14.16
2023-04-16T09:42:57.783Z,14.26
2023-04-16T09:45:24.590Z,14.10
2023-04-16T09:47:51.344Z,14.00
2023-04-16T09:50:19.321Z,13.90
2023-04-16T09:52:48.423Z,13.80
2023-04-16T09:55:15.426Z,13.83
2023-04-16T09:57:42.041Z,13.95
2023-04-16T10:00:09.459Z,13.83
2023-04-16T10:02:39.195Z,13.86
2023-04-16T10:05:06.463Z,13.87
2023-04-16T10:07:36.916Z,13.90
2023-04-16T10:10:04.202Z,14.02
2023-04-16T10:12:32.718Z,14.13
2023-04-16T10:14:59.461Z,14.00
2023-04-16T10:17:26.599Z,13.86
2023-04-16T10:19:53.907Z,13.58
2023-04-16T10:22:20.572Z,13.24
2023-04-16T10:24:47.252Z,13.00
2023-04-16T10:27:13.918Z,12.79
2023-04-16T10:29:40.605Z,12.69
2023-04-16T10:32:07.263Z,12.57
2023-04-16T10:34:33.865Z,12.38
2023-04-16T10:37:00.628Z,12.20
2023-04-16T10:39:30.434Z,12.01
2023-04-16T10:42:12.489Z,11.84
2023-04-16T10:44:42.513Z,11.86
2023-04-16T10:47:12.690Z,11.93
2023-04-16T10:49:39.385Z,11.99
2023-04-16T10:52:17.191Z,12.14
2023-04-16T10:54:44.020Z,12.32
2023-04-16T10:57:15.010Z,12.42
2023-04-16T10:59:42.962Z,12.69
2023-04-16T11:02:16.143Z,12.87
2023-04-16T11:04:46.896Z,13.03
2023-04-16T11:07:19.576Z,13.17
2023-04-16T11:09:52.924Z,13.35
2023-04-16T11:12:23.577Z,13.76
2023-04-16T11:15:00.571Z,14.41
2023-04-16T11:17:41.639Z,14.51
2023-04-16T11:20:20.063Z,14.48
2023-04-16T11:22:48.206Z,14.63
2023-04-16T11:25:22.803Z,14.78
2023-04-16T11:27:49.922Z,14.85
2023-04-16T11:30:16.883Z,15.04
2023-04-16T11:32:44.019Z,15.19
2023-04-16T11:35:18.233Z,15.24
2023-04-16T11:37:45.056Z,15.46
2023-04-16T11:40:12.522Z,15.70
2023-04-16T11:42:43.498Z,15.65
2023-04-16T11:45:11.344Z,15.98
2023-04-16T11:47:55.461Z,16.22
2023-04-16T11:50:25.614Z,16.59
2023-04-16T11:52:53.446Z,16.63
2023-04-16T11:55:20.731Z,16.83
2023-04-16T11:57:47.395Z,16.84
2023-04-16T12:00:14.706Z,16.50
2023-04-16T12:02:45.684Z,16.43
2023-04-16T12:05:32.216Z,16.34
2023-04-16T12:07:59.353Z,16.10
2023-04-16T12:10:26.323Z,16.05
2023-04-16T12:12:53.089Z,16.06
2023-04-16T12:15:19.786Z,16.08
2023-04-16T12:17:46.498Z,16.02
2023-04-16T12:20:14.935Z,15.91
2023-04-16T12:22:45.187Z,15.71
2023-04-16T12:25:12.890Z,15.39
2023-04-16T12:27:54.345Z,15.03
2023-04-16T12:30:22.688Z,14.74
2023-04-16T12:32:49.939Z,14.81
2023-04-16T12:35:32.925Z,15.44
2023-04-16T12:37:59.969Z,16.04
2023-04-16T12:40:26.930Z,16.45
2023-04-16T12:42:53.584Z,16.46
2023-04-16T12:45:20.271Z,16.45
2023-04-16T12:47:47.407Z,16.40
2023-04-16T12:50:14.190Z,16.53
2023-04-16T12:52:40.861Z,16.60
2023-04-16T12:55:07.832Z,16.36
2023-04-16T12:57:34.538Z,16.06
2023-04-16T13:00:01.261Z,15.70
2023-04-16T13:02:28.057Z,15.39
2023-04-16T13:04:54.895Z,14.98
2023-04-16T13:07:21.552Z,14.64
2023-04-16T13:09:48.237Z,14.52
2023-04-16T13:12:14.939Z,14.48
2023-04-16T13:14:43.368Z,14.41
2023-04-16T13:17:11.660Z,14.33
2023-04-16T13:19:38.267Z,14.33
2023-04-16T13:22:04.867Z,14.06
2023-04-16T13:24:31.598Z,13.80
2023-04-16T13:26:58.389Z,13.76
2023-04-16T13:29:25.028Z,13.80
2023-04-16T13:31:51.773Z,13.72
2023-04-16T13:34:18.432Z,13.80
2023-04-16T13:36:45.041Z,13.73
2023-04-16T13:39:11.913Z,13.78
2023-04-16T13:41:38.673Z,13.90
2023-04-16T13:44:05.674Z,14.09
2023-04-16T13:46:32.560Z,14.18
2023-04-16T13:48:59.244Z,14.42
2023-04-16T13:51:27.452Z,14.54
2023-04-16T13:53:54.656Z,14.69
2023-04-16T13:56:21.377Z,14.63
2023-04-16T13:58:48.039Z,14.61
2023-04-16T14:01:14.743Z,14.52
2023-04-16T14:03:42.064Z,14.42
2023-04-16T14:06:10.039Z,14.45
2023-04-16T14:08:38.279Z,14.54
2023-04-16T14:11:06.492Z,14.51
2023-04-16T14:13:33.120Z,14.54
2023-04-16T14:15:59.928Z,14.54
2023-04-16T14:18:26.647Z,14.57
2023-04-16T14:20:53.269Z,14.49
2023-04-16T14:23:19.906Z,14.44
2023-04-16T14:25:46.535Z,14.33
2023-04-16T14:28:15.524Z,14.31
2023-04-16T14:30:42.441Z,14.09
2023-04-16T14:33:09.326Z,13.82
2023-04-16T14:35:36.118Z,13.54
2023-04-16T14:38:02.924Z,13.20
2023-04-16T14:40:29.573Z,13.03
2023-04-16T14:42:56.264Z,12.93
2023-04-16T14:45:23.051Z,12.84
2023-04-16T14:47:50.821Z,12.77
2023-04-16T14:50:17.475Z,12.80
2023-04-16T14:52:44.206Z,12.76
2023-04-16T14:55:10.929Z,12.72
2023-04-16T14:57:38.513Z,12.73
2023-04-16T15:00:10.695Z,12.69
2023-04-16T15:02:37.549Z,12.75
2023-04-16T15:05:04.575Z,12.70
2023-04-16T15:07:31.660Z,12.75
2023-04-16T15:09:58.268Z,12.70
2023-04-16T15:12:26.164Z,12.73
2023-04-16T15:14:52.784Z,12.75
2023-04-16T15:17:19.734Z,12.79
2023-04-16T15:19:46.452Z,12.84
2023-04-16T15:22:14.746Z,12.87
2023-04-16T15:24:41.434Z,12.87
2023-04-16T15:27:11.612Z,12.87
2023-04-16T15:29:38.683Z,12.82
2023-04-16T15:32:06.944Z,12.77
2023-04-16T15:34:33.600Z,12.75
2023-04-16T15:37:00.464Z,12.72
2023-04-16T15:39:27.121Z,12.75
2023-04-16T15:42:01.154Z,12.77
2023-04-16T15:44:28.172Z,12.63
2023-04-16T15:46:54.814Z,12.60
2023-04-16T15:49:21.487Z,12.50
2023-04-16T15:51:48.148Z,12.46
2023-04-16T15:54:14.812Z,12.41
2023-04-16T15:56:41.668Z,12.35
2023-04-16T15:59:08.554Z,12.25
2023-04-16T16:01:35.469Z,12.20
2023-04-16T16:04:02.241Z,12.08
2023-04-16T16:06:28.936Z,11.97
2023-04-16T16:08:55.816Z,11.87
2023-04-16T16:11:22.572Z,11.83
2023-04-16T16:13:49.170Z,11.78
2023-04-16T16:16:16.164Z,11.76
2023-04-16T16:18:42.837Z,11.69
2023-04-16T16:21:09.453Z,11.69
2023-04-16T16:23:36.176Z,11.65
2023-04-16T16:26:05.755Z,11.62
2023-04-16T16:28:32.481Z,11.60
2023-04-16T16:31:01.253Z,11.66
2023-04-16T16:33:28.874Z,11.66
2023-04-16T16:35:55.524Z,11.66
2023-04-16T16:38:22.130Z,11.60
2023-04-16T16:40:48.818Z,11.55
2023-04-16T16:43:15.447Z,11.47
2023-04-16T16:45:42.117Z,11.33
2023-04-16T16:48:08.981Z,11.30
2023-04-16T16:50:35.832Z,11.25
2023-04-16T16:53:03.056Z,11.18
2023-04-16T16:55:29.669Z,11.07
2023-04-16T16:57:56.426Z,10.98
2023-04-16T17:00:23.133Z,10.88
2023-04-16T17:02:51.388Z,10.80
2023-04-16T17:05:18.254Z,10.70
2023-04-16T17:07:44.943Z,10.64
2023-04-16T17:10:13.365Z,10.49
2023-04-16T17:12:40.078Z,10.36
2023-04-16T17:15:07.225Z,10.23
2023-04-16T17:17:33.917Z,10.12
2023-04-16T17:20:01.198Z,10.02
2023-04-16T17:22:27.895Z,9.95
2023-04-16T17:24:54.560Z,9.89
2023-04-16T17:27:21.221Z,9.71
2023-04-16T17:29:47.892Z,9.51
2023-04-16T17:32:14.611Z,9.44
2023-04-16T17:34:41.265Z,9.43
2023-04-16T17:37:07.967Z,9.43
2023-04-16T17:39:34.581Z,9.40
2023-04-16T17:42:02.978Z,9.37
2023-04-16T17:44:29.619Z,9.29
2023-04-16T17:46:56.663Z,9.23
2023-04-16T17:49:23.382Z,9.15
2023-04-16T17:51:50.060Z,9.12
2023-04-16T17:54:16.702Z,9.06
2023-04-16T17:56:43.364Z,9.00
2023-04-16T17:59:10.016Z,8.99
2023-04-16T18:01:36.757Z,8.96
2023-04-16T18:04:03.716Z,8.92
2023-04-16T18:06:31.023Z,8.85
2023-04-16T18:08:57.770Z,8.73
2023-04-16T18:11:24.428Z,8.65
2023-04-16T18:13:53.618Z,8.65
2023-04-16T18:16:20.517Z,8.61
2023-04-16T18:18:47.265Z,8.51
2023-04-16T18:21:13.927Z,8.40
2023-04-16T18:23:41.100Z,8.34
2023-04-16T18:26:09.375Z,8.26
2023-04-16T18:28:36.959Z,8.14
2023-04-16T18:31:05.672Z,8.13
2023-04-16T18:36:02.318Z,7.96
2023-04-16T18:38:31.300Z,7.86
2023-04-16T18:40:58.557Z,7.76
2023-04-16T18:43:25.440Z,7.71
2023-04-16T18:45:52.170Z,7.69
2023-04-16T18:48:18.880Z,7.71
2023-04-16T18:50:45.645Z,7.69
2023-04-16T18:53:12.339Z,7.68
2023-04-16T18:55:39.039Z,7.61
2023-04-16T18:58:05.750Z,7.54
2023-04-16T19:00:32.460Z,7.50
2023-04-16T19:02:59.157Z,7.45
2023-04-16T19:05:25.912Z,7.41
2023-04-16T19:07:52.539Z,7.31
2023-04-16T19:10:19.183Z,7.25
2023-04-16T19:12:46.024Z,7.17
2023-04-16T19:15:12.706Z,7.11
2023-04-16T19:17:39.994Z,7.04
2023-04-16T19:20:11.165Z,6.97
2023-04-16T19:22:38.359Z,6.95
2023-04-16T19:25:06.078Z,6.86
2023-04-16T19:27:32.734Z,6.76
2023-04-16T19:29:59.533Z,6.73
2023-04-16T19:32:26.178Z,6.69
2023-04-16T19:34:52.820Z,6.66
2023-04-16T19:37:19.503Z,6.65
2023-04-16T19:39:46.203Z,6.61
2023-04-16T19:42:12.879Z,6.59
2023-04-16T19:44:39.529Z,6.58
2023-04-16T19:47:06.605Z,6.56
2023-04-16T19:49:34.516Z,6.52
2023-04-16T19:52:01.461Z,6.55
2023-04-16T19:54:28.764Z,6.52
2023-04-16T19:56:55.496Z,6.50
2023-04-16T19:59:22.367Z,6.50
2023-04-16T20:01:49.024Z,6.53
2023-04-16T20:04:16.004Z,6.59
2023-04-16T20:06:42.620Z,6.64
2023-04-16T20:09:09.402Z,6.64
2023-04-16T20:11:36.711Z,6.62
2023-04-16T20:14:03.430Z,6.64
2023-04-16T20:16:31.713Z,6.71
2023-04-16T20:19:03.633Z,6.75
2023-04-16T20:21:34.084Z,6.79
2023-04-16T20:24:00.743Z,6.82
2023-04-16T20:26:33.823Z,6.87
2023-04-16T20:29:00.901Z,6.90
2023-04-16T20:31:27.619Z,6.87
2023-04-16T20:33:54.416Z,6.87
2023-04-16T20:36:21.539Z,6.86
2023-04-16T20:38:48.152Z,6.89
2023-04-16T20:41:20.471Z,6.90
2023-04-16T20:43:50.121Z,6.93
2023-04-16T20:46:16.851Z,6.83
2023-04-16T20:48:43.559Z,6.83
2023-04-16T20:51:10.241Z,6.77
2023-04-16T20:53:39.711Z,6.77
2023-04-16T20:56:06.967Z,6.79
2023-04-16T20:58:33.680Z,6.77
2023-04-16T21:01:00.323Z,6.73
2023-04-16T21:03:27.180Z,6.64
2023-04-16T21:05:55.125Z,6.59
2023-04-16T21:08:22.027Z,6.59
2023-04-16T21:10:48.824Z,6.61
2023-04-16T21:13:15.747Z,6.56
2023-04-16T21:15:43.571Z,6.53
2023-04-16T21:18:10.464Z,6.53
2023-04-16T21:20:37.341Z,6.49
2023-04-16T21:23:04.232Z,6.48
2023-04-16T21:25:31.170Z,6.46
2023-04-16T21:27:57.849Z,6.38
2023-04-16T21:30:24.462Z,6.35
2023-04-16T21:32:51.265Z,6.34
2023-04-16T21:35:17.937Z,6.35
2023-04-16T21:37:44.598Z,6.27
2023-04-16T21:40:11.611Z,6.27
2023-04-16T21:42:39.959Z,6.24
2023-04-16T21:45:11.065Z,6.21
2023-04-16T21:47:38.134Z,6.18
2023-04-16T21:50:05.157Z,6.11
2023-04-16T21:52:32.919Z,6.06
2023-04-16T21:55:02.724Z,6.03
2023-04-16T21:57:29.366Z,5.99
2023-04-16T21:59:56.034Z,5.93
2023-04-16T22:02:22.900Z,5.87
2023-04-16T22:04:50.413Z,5.81
2023-04-16T22:07:17.516Z,5.72
2023-04-16T22:09:44.197Z,5.59
2023-04-16T22:12:10.884Z,5.48
2023-04-16T22:14:42.145Z,5.48
2023-04-16T22:17:13.036Z,5.46
2023-04-16T22:19:39.676Z,5.46
2023-04-16T22:22:06.323Z,5.45
2023-04-16T22:24:32.997Z,5.48
2023-04-16T22:26:59.675Z,5.43
2023-04-16T22:29:26.429Z,5.39
2023-04-16T22:31:53.224Z,5.42
2023-04-16T22:34:19.996Z,5.42
2023-04-16T22:36:47.598Z,5.43
2023-04-16T22:39:14.519Z,5.39
2023-04-16T22:41:41.564Z,5.38
2023-04-16T22:44:08.211Z,5.38
2023-04-16T22:46:35.211Z,5.35
2023-04-16T22:49:02.673Z,5.36
2023-04-16T22:51:29.433Z,5.36
2023-04-16T22:53:56.271Z,5.34
2023-04-16T22:56:28.508Z,5.38
2023-04-16T22:58:55.145Z,5.38
2023-04-16T23:01:21.976Z,5.38
2023-04-16T23:03:48.953Z,5.35
2023-04-16T23:06:15.735Z,5.39
2023-04-16T23:08:42.412Z,5.34
2023-04-16T23:11:09.010Z,5.31
2023-04-16T23:13:35.610Z,5.27
2023-04-16T23:16:02.472Z,5.27
2023-04-16T23:18:29.257Z,5.28
2023-04-16T23:20:56.191Z,5.25
2023-04-16T23:23:22.805Z,5.22
2023-04-16T23:25:52.381Z,5.14
2023-04-16T23:28:19.037Z,5.04
2023-04-16T23:30:45.689Z,5.04
2023-04-16T23:33:12.338Z,5.00
2023-04-16T23:35:38.980Z,4.97
2023-04-16T23:38:05.869Z,4.95
2023-04-16T23:40:32.514Z,5.00
2023-04-16T23:42:59.121Z,4.98
2023-04-16T23:45:25.854Z,4.95
2023-04-16T23:47:52.667Z,4.90
2023-04-16T23:50:19.445Z,4.93
2023-04-16T23:52:46.087Z,5.00
2023-04-16T23:55:12.788Z,5.01
2023-04-16T23:57:39.445Z,5.01
